Bretagne — FNBR — position and weather

sailwx.info

Track history (hours):
 
Tides and Currents Weather Stations Pressure Air Temp Water Temp Dewpoint Dewpoint Depression Visibility Wind Speed Wind Dir Waves Ship Positions

Bretagne

Operator: Brittany Ferries

Last reported at 2014-Jul-27 21:32 UTC. Time now 2014-Jul-28 04:22 UTC.
Position N 50°23' W 001°22'.

Length 151 m; beam 27 m.

Type: Passenger vessel. MMSI: 227286000.

Date/timePositionNaut miles runAvg speedWind from/ knotsBaromVisibWave heightAir tempDewpointWater temp
2014-Jul-27 21:32N 50°23' W 001°22'1313.2
2014-Jul-27 20:33N 50°34' W 001°10'1211.6
2014-Jul-27 19:34N 50°45' W 001°05'4 3.7
2014-Jul-27 18:33N 50°49' W 001°06'0 0.0
2014-Jul-27 17:33N 50°49' W 001°06'3 3.4
2014-Jul-27 16:33N 50°45' W 001°05'1515.0
2014-Jul-27 15:33N 50°31' W 001°12'42 2.8
2014-Jul-27 00:14N 49°56' W 001°49'812.3
2014-Jul-26 23:33N 50°03' W 001°41'2014.0
2014-Jul-26 22:08N 50°19' W 001°24'813.8
2014-Jul-26 21:33N 50°26' W 001°17'1312.9
2014-Jul-26 20:33N 50°37' W 001°07'1111.4
2014-Jul-26 19:33N 50°48' W 001°07'1 0.8
2014-Jul-26 18:32N 50°49' W 001°06'0 0.0
2014-Jul-26 17:34N 50°49' W 001°06'1111.1
2014-Jul-26 16:33N 50°38' W 001°06'1918.6
2014-Jul-26 15:32N 50°21' W 001°21'3716.9
2014-Jul-26 13:22N 49°52' W 001°56'66 8.3
2014-Jul-26 05:27N 48°46' W 002°07'10112.7
2014-Jul-25 21:33N 50°23' W 001°22'1414.0
2014-Jul-25 20:33N 50°34' W 001°10'1111.4
2014-Jul-25 19:33N 50°45' W 001°05'4 3.5
2014-Jul-25 18:32N 50°49' W 001°06'0 0.0
2014-Jul-25 17:33N 50°49' W 001°06'5 5.4
2014-Jul-25 16:33N 50°44' W 001°04'1716.9
2014-Jul-25 15:33N 50°29' W 001°17'11412.0
2014-Jul-25 06:05N 48°38' W 002°02'612.3
2014-Jul-25 05:33N 48°44' W 002°07'1616.2
2014-Jul-25 04:33N 48°57' W 002°22'1312.5
2014-Jul-25 03:33N 49°09' W 002°23'1211.8
2014-Jul-25 02:33N 49°21' W 002°19'1312.9
2014-Jul-25 01:33N 49°32' W 002°11'1514.7
2014-Jul-25 00:33N 49°47' W 002°04'1313.4
2014-Jul-24 23:33N 49°59' W 001°55'1615.8
2014-Jul-24 22:33N 50°09' W 001°38'1515.1
2014-Jul-24 21:33N 50°21' W 001°23'1414.2
2014-Jul-24 20:33N 50°33' W 001°11'1212.2
2014-Jul-24 19:34N 50°45' W 001°05'4 4.0
2014-Jul-24 18:33N 50°49' W 001°06'0 0.0
2014-Jul-24 17:33N 50°49' W 001°06'4 4.1
2014-Jul-24 16:33N 50°45' W 001°05'1717.2
2014-Jul-24 15:33N 50°29' W 001°17'1918.8
2014-Jul-24 14:33N 50°14' W 001°33'1817.9
2014-Jul-24 13:33N 49°59' W 001°49'5716.8
2014-Jul-24 10:10N 49°06' W 002°22'16 2.0
2014-Jul-24 02:13N 49°22' W 002°17'1212.5
2014-Jul-24 01:16N 49°32' W 002°11'3315.1
2014-Jul-23 23:06N 50°01' W 001°46'3116.5
2014-Jul-23 21:14N 50°27' W 001°20'1115.8
2014-Jul-23 20:34N 50°36' W 001°10'1211.8
2014-Jul-23 19:33N 50°47' W 001°06'2 1.6
2014-Jul-23 18:33N 50°49' W 001°06'0 0.0
2014-Jul-23 17:33N 50°49' W 001°06'3 2.9
2014-Jul-23 16:34N 50°46' W 001°05'1716.6
2014-Jul-23 15:33N 50°30' W 001°15'76 5.9
2014-Jul-23 02:33N 49°24' W 002°15'2913.7
2014-Jul-23 00:25N 49°51' W 001°55'1916.2
2014-Jul-22 23:15N 50°07' W 001°39'1217.0
2014-Jul-22 22:33N 50°16' W 001°27'1716.7
2014-Jul-22 21:34N 50°30' W 001°15'1515.1
2014-Jul-22 20:34N 50°44' W 001°03'5 5.4
2014-Jul-22 19:33N 50°49' W 001°06'0 0.0
2014-Jul-22 18:33N 50°49' W 001°06'0 0.0
2014-Jul-22 17:33N 50°49' W 001°06'5 4.9
2014-Jul-22 16:34N 50°44' W 001°04'1615.4
2014-Jul-22 15:33N 50°29' W 001°13'3 0.2
2014-Jul-21 21:05N 50°28' W 001°17'916.4
2014-Jul-21 20:33N 50°35' W 001°10'416.3
2014-Jul-21 20:18N 50°38' W 001°06'912.7
2014-Jul-21 19:34N 50°48' W 001°07'1 1.1
2014-Jul-21 18:32N 50°49' W 001°06'0 0.0
2014-Jul-21 17:31N 50°49' W 001°06'2 1.6
2014-Jul-21 16:34N 50°47' W 001°06'19 1.0
2014-Jul-20 21:32N 50°30' W 001°15'1515.7
2014-Jul-20 20:34N 50°43' W 001°03'6 5.9
2014-Jul-20 19:32N 50°49' W 001°06'0 0.0
2014-Jul-20 18:32N 50°49' W 001°06'0 0.0
2014-Jul-20 17:32N 50°49' W 001°06'2 2.3
2014-Jul-20 16:34N 50°46' W 001°06'66 4.1
2014-Jul-20 00:29N 49°49' W 001°56'1516.0
2014-Jul-19 23:33N 50°02' W 001°45'1818.0
2014-Jul-19 22:33N 50°17' W 001°29'1817.9
2014-Jul-19 21:33N 50°32' W 001°15'1413.7
2014-Jul-19 20:34N 50°44' W 001°04'5 4.7
2014-Jul-19 19:32N 50°49' W 001°06'0 0.0
2014-Jul-19 18:32N 50°49' W 001°06'0 0.0
2014-Jul-19 17:32N 50°49' W 001°06'9 8.8
2014-Jul-19 16:33N 50°40' W 001°04'61 3.8
2014-Jul-19 00:27N 49°50' W 001°57'3913.2
2014-Jul-18 21:28N 50°23' W 001°23'1415.5
2014-Jul-18 20:33N 50°34' W 001°10'1313.3
2014-Jul-18 19:34N 50°47' W 001°06'2 1.6
2014-Jul-18 18:33N 50°49' W 001°06'0 0.0
2014-Jul-18 17:33N 50°49' W 001°06'6 6.5
2014-Jul-18 16:34N 50°43' W 001°03'1717.1
2014-Jul-18 15:33N 50°28' W 001°17'11212.5
2014-Jul-18 06:33N 48°39' W 002°04'1816.1
2014-Jul-18 05:26N 48°54' W 002°20'8513.9
2014-Jul-17 23:22N 50°11' W 001°28'910.9
2014-Jul-17 22:34N 50°19' W 001°21'1010.1
2014-Jul-17 21:33N 50°28' W 001°13'  
Track history (hours):
 
Tides and Currents Weather Stations Pressure Air Temp Water Temp Dewpoint Dewpoint Depression Visibility Wind Speed Wind Dir Waves Ship Positions

Bretagne

Operator: Brittany Ferries

Last reported at 2014-Jul-27 21:32 UTC. Time now 2014-Jul-28 04:22 UTC.
Position N 50°23' W 001°22'.

Length 151 m; beam 27 m.

Type: Passenger vessel. MMSI: 227286000.

Date/timePositionNaut miles runAvg speedWind from/ knotsBaromVisibWave heightAir tempDewpointWater temp
2014-Jul-27 21:32N 50°23' W 001°22'1313.2
2014-Jul-27 20:33N 50°34' W 001°10'1211.6
2014-Jul-27 19:34N 50°45' W 001°05'4 3.7
2014-Jul-27 18:33N 50°49' W 001°06'0 0.0
2014-Jul-27 17:33N 50°49' W 001°06'3 3.4
2014-Jul-27 16:33N 50°45' W 001°05'1515.0
2014-Jul-27 15:33N 50°31' W 001°12'42 2.8
2014-Jul-27 00:14N 49°56' W 001°49'812.3
2014-Jul-26 23:33N 50°03' W 001°41'2014.0
2014-Jul-26 22:08N 50°19' W 001°24'813.8
2014-Jul-26 21:33N 50°26' W 001°17'1312.9
2014-Jul-26 20:33N 50°37' W 001°07'1111.4
2014-Jul-26 19:33N 50°48' W 001°07'1 0.8
2014-Jul-26 18:32N 50°49' W 001°06'0 0.0
2014-Jul-26 17:34N 50°49' W 001°06'1111.1
2014-Jul-26 16:33N 50°38' W 001°06'1918.6
2014-Jul-26 15:32N 50°21' W 001°21'3716.9
2014-Jul-26 13:22N 49°52' W 001°56'66 8.3
2014-Jul-26 05:27N 48°46' W 002°07'10112.7
2014-Jul-25 21:33N 50°23' W 001°22'1414.0
2014-Jul-25 20:33N 50°34' W 001°10'1111.4
2014-Jul-25 19:33N 50°45' W 001°05'4 3.5
2014-Jul-25 18:32N 50°49' W 001°06'0 0.0
2014-Jul-25 17:33N 50°49' W 001°06'5 5.4
2014-Jul-25 16:33N 50°44' W 001°04'1716.9
2014-Jul-25 15:33N 50°29' W 001°17'11412.0
2014-Jul-25 06:05N 48°38' W 002°02'612.3
2014-Jul-25 05:33N 48°44' W 002°07'1616.2
2014-Jul-25 04:33N 48°57' W 002°22'1312.5
2014-Jul-25 03:33N 49°09' W 002°23'1211.8
2014-Jul-25 02:33N 49°21' W 002°19'1312.9
2014-Jul-25 01:33N 49°32' W 002°11'1514.7
2014-Jul-25 00:33N 49°47' W 002°04'1313.4
2014-Jul-24 23:33N 49°59' W 001°55'1615.8
2014-Jul-24 22:33N 50°09' W 001°38'1515.1
2014-Jul-24 21:33N 50°21' W 001°23'1414.2
2014-Jul-24 20:33N 50°33' W 001°11'1212.2
2014-Jul-24 19:34N 50°45' W 001°05'4 4.0
2014-Jul-24 18:33N 50°49' W 001°06'0 0.0
2014-Jul-24 17:33N 50°49' W 001°06'4 4.1
2014-Jul-24 16:33N 50°45' W 001°05'1717.2
2014-Jul-24 15:33N 50°29' W 001°17'1918.8
2014-Jul-24 14:33N 50°14' W 001°33'1817.9
2014-Jul-24 13:33N 49°59' W 001°49'5716.8
2014-Jul-24 10:10N 49°06' W 002°22'16 2.0
2014-Jul-24 02:13N 49°22' W 002°17'1212.5
2014-Jul-24 01:16N 49°32' W 002°11'3315.1
2014-Jul-23 23:06N 50°01' W 001°46'3116.5
2014-Jul-23 21:14N 50°27' W 001°20'1115.8
2014-Jul-23 20:34N 50°36' W 001°10'1211.8
2014-Jul-23 19:33N 50°47' W 001°06'2 1.6
2014-Jul-23 18:33N 50°49' W 001°06'0 0.0
2014-Jul-23 17:33N 50°49' W 001°06'3 2.9
2014-Jul-23 16:34N 50°46' W 001°05'1716.6
2014-Jul-23 15:33N 50°30' W 001°15'76 5.9
2014-Jul-23 02:33N 49°24' W 002°15'2913.7
2014-Jul-23 00:25N 49°51' W 001°55'1916.2
2014-Jul-22 23:15N 50°07' W 001°39'1217.0
2014-Jul-22 22:33N 50°16' W 001°27'1716.7
2014-Jul-22 21:34N 50°30' W 001°15'1515.1
2014-Jul-22 20:34N 50°44' W 001°03'5 5.4
2014-Jul-22 19:33N 50°49' W 001°06'0 0.0
2014-Jul-22 18:33N 50°49' W 001°06'0 0.0
2014-Jul-22 17:33N 50°49' W 001°06'5 4.9
2014-Jul-22 16:34N 50°44' W 001°04'1615.4
2014-Jul-22 15:33N 50°29' W 001°13'3 0.2
2014-Jul-21 21:05N 50°28' W 001°17'916.4
2014-Jul-21 20:33N 50°35' W 001°10'416.3
2014-Jul-21 20:18N 50°38' W 001°06'912.7
2014-Jul-21 19:34N 50°48' W 001°07'1 1.1
2014-Jul-21 18:32N 50°49' W 001°06'0 0.0
2014-Jul-21 17:31N 50°49' W 001°06'2 1.6
2014-Jul-21 16:34N 50°47' W 001°06'19 1.0
2014-Jul-20 21:32N 50°30' W 001°15'1515.7
2014-Jul-20 20:34N 50°43' W 001°03'6 5.9
2014-Jul-20 19:32N 50°49' W 001°06'0 0.0
2014-Jul-20 18:32N 50°49' W 001°06'0 0.0
2014-Jul-20 17:32N 50°49' W 001°06'2 2.3
2014-Jul-20 16:34N 50°46' W 001°06'66 4.1
2014-Jul-20 00:29N 49°49' W 001°56'1516.0
2014-Jul-19 23:33N 50°02' W 001°45'1818.0
2014-Jul-19 22:33N 50°17' W 001°29'1817.9
2014-Jul-19 21:33N 50°32' W 001°15'1413.7
2014-Jul-19 20:34N 50°44' W 001°04'5 4.7
2014-Jul-19 19:32N 50°49' W 001°06'0 0.0
2014-Jul-19 18:32N 50°49' W 001°06'0 0.0
2014-Jul-19 17:32N 50°49' W 001°06'9 8.8
2014-Jul-19 16:33N 50°40' W 001°04'61 3.8
2014-Jul-19 00:27N 49°50' W 001°57'3913.2
2014-Jul-18 21:28N 50°23' W 001°23'1415.5
2014-Jul-18 20:33N 50°34' W 001°10'1313.3
2014-Jul-18 19:34N 50°47' W 001°06'2 1.6
2014-Jul-18 18:33N 50°49' W 001°06'0 0.0
2014-Jul-18 17:33N 50°49' W 001°06'6 6.5
2014-Jul-18 16:34N 50°43' W 001°03'1717.1
2014-Jul-18 15:33N 50°28' W 001°17'11212.5
2014-Jul-18 06:33N 48°39' W 002°04'1816.1
2014-Jul-18 05:26N 48°54' W 002°20'8513.9
2014-Jul-17 23:22N 50°11' W 001°28'910.9
2014-Jul-17 22:34N 50°19' W 001°21'1010.1
2014-Jul-17 21:33N 50°28' W 001°13'  

Dump ship's entire track history